Terminal Aerodrome Forecast
Issued by NWS Grand Junction, CO

Home | Current Version | Previous Version | Text Only | Print | Product List | Glossary On
Versions: 1 2 3 4 5 6 7 8 9 10 11 12 13 14 15 16 17 18 19 20 21 22 23 24 25 26 27 28 29 30 31
000
FTUS45 KGJT 220528
TAFGJT
TAF
KGJT 220528Z 2206/2306 10007KT P6SM -SHRA SCT060 BKN090
     FM220700 11008KT P6SM VCSH SCT070 BKN100
      TEMPO 2209/2213 VRB10KT 5SM SHRA BR SCT050 BKN070
     FM221400 12007KT P6SM BKN100
     FM221900 23008KT P6SM SCT090
     FM230200 04004KT P6SM FEW110=

USA.gov is the U.S. government's official web portal to all federal, state and local government web resources and services.